Aviation Digital Data Service (ADDS)

Output produced by METARs form (1930 UTC 18 June 2019)
found at http://www.aviationweather.gov/metar/data/
 
OPLA 181855Z 11004KT 5000 FU SCT040 SCT100 28/20 Q1001 NOSIG RMK A29.57
TAF OPLA 181545Z 1818/1924 34008KT 4000 FU FEW040 SCT100 TX39/1910Z TN28/1924Z 
     TEMPO 1818/1822 34025G45KT 1500 -TSRA FEW030CB SCT040 BKN100 
     TEMPO 1900/1904 03015G35KT 2000 TSRA FEW030CB SCT040 BKN100 
     BECMG 1918/1922 SCT040 BKN100
       
TAF OPBW 181615Z 1818/1912 36010KT 4000 FU FEW040 BKN100 TN26/1901Z TX37/1910Z 
     PROB30 
     TEMPO 1818/1822 36020KT 2000 TSRA FEW030CB SCT040 BKN100 FM 190600 05005KT
3000 HZ SCT120
       
TAF OPDG 181615Z 1818/1912 36010KT 4000 FU FEW040 BKN100 TN26/1901Z TX37/1910Z 
     PROB30 
     TEMPO 1818/1822 36020KT 2000 TSRA FEW030CB SCT040 BKN100 FM 190600 05005KT
6000 HZ SCT120
       
TAF OPGD 181530Z 1818/1918 25010KT 4000 HZ SCT020 
     TEMPO 1900/1904 26007KT 3000 FU SCT020 
     FM190600 24010G20KT 5000 HZ SCT030
       
OPKC 181855Z 22009KT 5000 FU SCT020 31/26 Q0999 NOSIG
TAF OPKC 181530Z 1818/1924 25010KT 6000 SCT020 
     TEMPO 1901/1905 26007KT 4000 FU SCT020 
     FM190700 24012G22KT 6000 NSC 
     FM191500 25010KT 6000 SCT010
       
OPMT 181900Z 00000KT 5000 FU FEW040 SCT100 27/23 Q0999 TEMPO 05020G30KT 2000 TSRA FEW030CB
TAF OPMT 181615Z 1818/1912 36010KT 4000 FU FEW040 BKN100 TN26/1901Z TX37/1910Z 
     PROB30 
     TEMPO 1818/1822 36020KT 2000 TSRA FEW030CB SCT040 BKN100 FM 190600 05005KT
5000 HZ SCT120
       
OPNH 181900Z 13508KT 4000 HZ NSC 33/25 Q0996 NOSIG
TAF OPNH 181530Z 1818/1924 18008KT 4000 HZ NSC 
     TEMPO 1901/1905 VRB03KT 3000 HZ NSC 
     FM190700 18008G18KT 5000 HZ NSC 
     FM191800 18008KT 4000 HZ NSC
       
OPPS 181900Z 05004KT 6000 HZ FEW110 30/16 Q1001
TAF OPPS 181522Z 1818/1924 21015KT 6000 FEW040 SCT100 
     TEMPO 1909/1913 21015G35KT 4000 TS FEW030TCU/CB SCT040 BKN100 
     TEMPO 1914/1918 21015G25KT VCTS FEW030TCU SCT040 SCT100
       
TAF OPRK 181615Z 1818/1912 36010KT 4000 FU FEW040 BKN100 TN29/1901Z TX39/1910Z 
     PROB30 
     TEMPO 1818/1822 36020KT 2000 TSRA FEW030CB SCT040 BKN100 FM 190600 05005KT
6000 SCT120
       
OPSK 181900Z 05006KT 3000 HZ NSC 32/23 Q0997 NOSIG
TAF OPSK 181530Z 1818/1918 14008KT 4000 HZ NSC 
     TEMPO 1901/1905 VRB03KT 3000 HZ NSC 
     FM190700 14008G18KT 5000 HZ NSC